Time;durP1;ratioP1;P1;durP2;ratioP2;P2;SDS_P1;SDS_P2;PMS_P1;PMS_P2;Temp;Humidity;BMP_temperature;BMP_pressure;BME280_temperature;BME280_humidity;BME280_pressure;Samples;Min_cycle;Max_cycle;Signal;HPM_P1;HPM_P2
2021/06/19 00:00:29;;;;;;;5.78;2.78;;;;;;;;;;4237315;33;20147;-69
2021/06/19 00:02:59;;;;;;;5.15;2.42;;;;;;;;;;4262014;33;20206;-67
2021/06/19 00:05:25;;;;;;;5.55;2.58;;;;;;;;;;4261937;33;20538;-70
2021/06/19 00:07:51;;;;;;;2.33;2.12;;;;;;;;;;4261907;33;20128;-68
2021/06/19 00:10:17;;;;;;;5.70;2.37;;;;;;;;;;4261742;33;20140;-68
2021/06/19 00:12:44;;;;;;;3.72;2.53;;;;;;;;;;4248597;33;20132;-68
2021/06/19 00:15:11;;;;;;;3.53;2.28;;;;;;;;;;4261416;33;20120;-68
2021/06/19 00:44:24;;;;;;;9.98;3.00;;;;;;;;;;4544902;28;20564;-72
2021/06/19 00:46:51;;;;;;;5.18;2.37;;;;;;;;;;4232309;33;20184;-72
2021/06/19 00:49:17;;;;;;;7.43;2.78;;;;;;;;;;4232569;33;20129;-72
2021/06/19 00:51:43;;;;;;;6.43;2.87;;;;;;;;;;4232633;33;20243;-72
2021/06/19 00:54:09;;;;;;;5.35;2.80;;;;;;;;;;4232524;33;20129;-71
2021/06/19 00:56:36;;;;;;;9.52;2.95;;;;;;;;;;4231222;33;20124;-71
2021/06/19 00:59:05;;;;;;;4.85;2.50;;;;;;;;;;4231082;33;20535;-71
2021/06/19 01:01:32;;;;;;;9.32;2.75;;;;;;;;;;4231544;33;20096;-71
2021/06/19 01:03:58;;;;;;;8.80;2.87;;;;;;;;;;4231002;33;20125;-71
2021/06/19 01:06:23;;;;;;;7.80;3.03;;;;;;;;;;4231190;33;20221;-71
2021/06/19 01:08:49;;;;;;;4.15;2.90;;;;;;;;;;4232603;33;20192;-71
2021/06/19 01:11:21;;;;;;;6.40;2.97;;;;;;;;;;4231258;33;20105;-71
2021/06/19 01:13:50;;;;;;;10.68;3.70;;;;;;;;;;4231078;33;20208;-69
2021/06/19 01:16:17;;;;;;;12.65;3.33;;;;;;;;;;4231049;33;20208;-69
2021/06/19 01:18:43;;;;;;;9.35;3.62;;;;;;;;;;4230927;33;20102;-69
2021/06/19 01:21:16;;;;;;;12.07;4.12;;;;;;;;;;4231008;33;20213;-70
2021/06/19 01:23:42;;;;;;;8.73;3.92;;;;;;;;;;4230993;33;20093;-70
2021/06/19 01:26:11;;;;;;;6.68;3.33;;;;;;;;;;4231082;33;20209;-70
2021/06/19 01:28:37;;;;;;;8.43;3.58;;;;;;;;;;4232505;33;20200;-70
2021/06/19 01:31:03;;;;;;;16.33;3.50;;;;;;;;;;4232273;33;20232;-70
2021/06/19 01:33:29;;;;;;;10.82;3.70;;;;;;;;;;4232058;33;20128;-70
2021/06/19 01:35:55;;;;;;;10.40;4.60;;;;;;;;;;4232147;33;20529;-70
2021/06/19 01:38:20;;;;;;;7.75;3.62;;;;;;;;;;4232183;33;20188;-70
2021/06/19 01:40:46;;;;;;;5.90;3.45;;;;;;;;;;4232195;33;20097;-70
2021/06/19 01:43:12;;;;;;;13.32;3.85;;;;;;;;;;4232980;33;20580;-70
2021/06/19 01:45:38;;;;;;;11.57;3.62;;;;;;;;;;4246111;33;20121;-70
2021/06/19 01:48:06;;;;;;;9.32;3.50;;;;;;;;;;4246307;33;20132;-70
2021/06/19 01:50:32;;;;;;;11.07;3.35;;;;;;;;;;4246208;33;20099;-70
2021/06/19 01:52:59;;;;;;;10.88;3.50;;;;;;;;;;4246001;33;20130;-70
2021/06/19 01:55:25;;;;;;;11.57;3.42;;;;;;;;;;4233219;33;20226;-70
2021/06/19 01:57:56;;;;;;;12.98;3.75;;;;;;;;;;4232920;33;20121;-70
2021/06/19 02:00:23;;;;;;;13.32;4.47;;;;;;;;;;4246250;33;20128;-70
2021/06/19 02:02:49;;;;;;;7.57;3.15;;;;;;;;;;4232867;33;20124;-71
2021/06/19 02:05:15;;;;;;;8.30;3.03;;;;;;;;;;4245906;33;20142;-70
2021/06/19 02:07:54;;;;;;;7.95;3.30;;;;;;;;;;4233205;33;20215;-70
2021/06/19 02:10:23;;;;;;;7.70;2.85;;;;;;;;;;4245984;33;20211;-71
2021/06/19 02:12:49;;;;;;;7.55;3.30;;;;;;;;;;4232923;33;20097;-70
2021/06/19 02:15:15;;;;;;;8.45;3.42;;;;;;;;;;4246046;33;20113;-71
2021/06/19 02:17:41;;;;;;;7.90;3.10;;;;;;;;;;4232984;33;20115;-70
2021/06/19 02:20:08;;;;;;;4.57;2.60;;;;;;;;;;4246232;33;20128;-70
2021/06/19 02:22:34;;;;;;;4.07;3.12;;;;;;;;;;4245957;33;20119;-70
2021/06/19 02:25:01;;;;;;;8.10;3.20;;;;;;;;;;4245755;33;20116;-71
2021/06/19 02:27:27;;;;;;;5.65;2.87;;;;;;;;;;4221463;33;20131;-70
2021/06/19 02:29:53;;;;;;;6.97;3.20;;;;;;;;;;4245680;33;20240;-70
2021/06/19 02:32:19;;;;;;;4.75;2.78;;;;;;;;;;4232944;33;20125;-70
2021/06/19 02:34:45;;;;;;;10.25;3.47;;;;;;;;;;4245833;33;20104;-70
2021/06/19 02:37:10;;;;;;;6.10;3.00;;;;;;;;;;4245932;33;20141;-70
2021/06/19 02:39:36;;;;;;;11.63;4.18;;;;;;;;;;4245735;33;20117;-70
2021/06/19 02:42:02;;;;;;;11.27;4.03;;;;;;;;;;4245879;33;20173;-70
2021/06/19 02:44:28;;;;;;;11.07;3.55;;;;;;;;;;4229819;33;20208;-71
2021/06/19 02:46:54;;;;;;;8.45;3.60;;;;;;;;;;4233378;33;20129;-70
2021/06/19 02:49:20;;;;;;;14.50;4.22;;;;;;;;;;4233783;33;20148;-70
2021/06/19 02:51:46;;;;;;;12.13;4.35;;;;;;;;;;4233731;33;20123;-70
2021/06/19 02:54:12;;;;;;;10.07;4.93;;;;;;;;;;4232477;33;20144;-71
2021/06/19 02:56:38;;;;;;;13.13;5.00;;;;;;;;;;4232282;33;20117;-70
2021/06/19 02:59:03;;;;;;;9.63;5.12;;;;;;;;;;4233439;33;20116;-71
2021/06/19 03:01:29;;;;;;;15.57;5.60;;;;;;;;;;4233757;33;20521;-70
2021/06/19 03:03:55;;;;;;;15.13;6.35;;;;;;;;;;4233439;33;20128;-70
2021/06/19 03:06:21;;;;;;;19.05;6.47;;;;;;;;;;4233598;33;20117;-70
2021/06/19 03:08:47;;;;;;;17.60;6.62;;;;;;;;;;4233664;33;20112;-70
2021/06/19 03:11:13;;;;;;;20.65;6.43;;;;;;;;;;4233515;33;20116;-70
2021/06/19 03:13:39;;;;;;;13.23;5.82;;;;;;;;;;4233413;33;20109;-70
2021/06/19 03:16:05;;;;;;;14.00;5.75;;;;;;;;;;4233484;33;20105;-70
2021/06/19 03:18:31;;;;;;;12.98;5.75;;;;;;;;;;4233392;33;20105;-70
2021/06/19 03:20:57;;;;;;;15.85;6.62;;;;;;;;;;4233532;33;20136;-70
2021/06/19 03:23:22;;;;;;;12.20;6.43;;;;;;;;;;4233485;33;20131;-70
2021/06/19 03:25:48;;;;;;;16.67;6.90;;;;;;;;;;4231926;33;20229;-70
2021/06/19 03:28:14;;;;;;;21.25;7.45;;;;;;;;;;4231839;33;20236;-70
2021/06/19 03:30:45;;;;;;;14.73;5.93;;;;;;;;;;4233341;33;20129;-70
2021/06/19 03:33:11;;;;;;;18.27;7.25;;;;;;;;;;4232106;33;20144;-70
2021/06/19 03:35:37;;;;;;;20.67;7.68;;;;;;;;;;4233427;33;20544;-70
2021/06/19 03:38:05;;;;;;;11.50;5.32;;;;;;;;;;4233159;33;20125;-70
2021/06/19 03:40:31;;;;;;;12.98;5.40;;;;;;;;;;4233414;33;20525;-70
2021/06/19 03:42:57;;;;;;;13.05;4.43;;;;;;;;;;4232993;33;20627;-69
2021/06/19 03:45:25;;;;;;;13.88;4.57;;;;;;;;;;4246952;33;20181;-70
2021/06/19 03:47:53;;;;;;;16.58;5.57;;;;;;;;;;4247119;33;20233;-70
2021/06/19 03:50:20;;;;;;;13.40;5.40;;;;;;;;;;4222296;33;20108;-70
2021/06/19 03:52:46;;;;;;;21.75;4.95;;;;;;;;;;4247302;33;20581;-70
2021/06/19 03:55:12;;;;;;;13.23;4.70;;;;;;;;;;4247294;33;20119;-70
2021/06/19 03:57:38;;;;;;;14.32;5.72;;;;;;;;;;4233334;33;20136;-70
2021/06/19 04:00:08;;;;;;;11.27;5.07;;;;;;;;;;4245827;33;20112;-69
2021/06/19 04:02:34;;;;;;;16.25;4.62;;;;;;;;;;4247493;33;20124;-70
2021/06/19 04:05:00;;;;;;;13.10;3.95;;;;;;;;;;4247422;33;20314;-70
2021/06/19 04:07:26;;;;;;;17.10;4.10;;;;;;;;;;4247378;33;20100;-71
2021/06/19 04:09:53;;;;;;;11.35;3.83;;;;;;;;;;4247085;33;20136;-70
2021/06/19 04:12:21;;;;;;;13.45;3.45;;;;;;;;;;4234010;33;20413;-71
2021/06/19 04:14:47;;;;;;;7.78;3.67;;;;;;;;;;4246887;33;20095;-70
2021/06/19 04:17:13;;;;;;;8.65;2.83;;;;;;;;;;4247305;33;20178;-72
2021/06/19 04:19:39;;;;;;;6.70;3.10;;;;;;;;;;4234145;33;20633;-71
2021/06/19 04:22:06;;;;;;;4.35;2.12;;;;;;;;;;4234018;33;20138;-70
2021/06/19 04:24:32;;;;;;;5.43;2.20;;;;;;;;;;4247052;33;20558;-71
2021/06/19 04:26:59;;;;;;;5.53;2.25;;;;;;;;;;4247145;33;20109;-70
2021/06/19 04:29:27;;;;;;;4.50;2.00;;;;;;;;;;4246926;33;20119;-70
2021/06/19 04:31:54;;;;;;;4.03;2.37;;;;;;;;;;4246906;33;20676;-70
2021/06/19 04:34:23;;;;;;;8.45;2.30;;;;;;;;;;4233626;33;20570;-71
2021/06/19 04:36:50;;;;;;;3.37;1.75;;;;;;;;;;4234056;33;20112;-69
2021/06/19 04:39:16;;;;;;;4.12;2.10;;;;;;;;;;4246614;33;20122;-70
2021/06/19 04:42:00;;;;;;;3.55;2.00;;;;;;;;;;4222051;33;20184;-69
2021/06/19 04:46:54;;;;;;;2.53;1.75;;;;;;;;;;4246850;33;20084;-71
2021/06/19 04:49:20;;;;;;;2.95;1.50;;;;;;;;;;4246703;33;20105;-71
2021/06/19 04:51:46;;;;;;;6.68;1.65;;;;;;;;;;4233934;33;20135;-69
2021/06/19 04:54:12;;;;;;;5.05;1.90;;;;;;;;;;4246569;33;20124;-71
2021/06/19 04:56:39;;;;;;;4.15;2.10;;;;;;;;;;4246897;33;20468;-70
2021/06/19 04:59:05;;;;;;;2.72;1.30;;;;;;;;;;4233381;33;20100;-70
2021/06/19 05:01:31;;;;;;;1.50;1.40;;;;;;;;;;4221981;33;20108;-71
2021/06/19 05:03:57;;;;;;;2.90;1.52;;;;;;;;;;4233400;33;20116;-68
2021/06/19 05:06:23;;;;;;;1.75;1.50;;;;;;;;;;4233478;33;20544;-68
2021/06/19 05:08:49;;;;;;;4.82;1.58;;;;;;;;;;4246347;33;20524;-68
2021/06/19 05:11:15;;;;;;;1.77;1.40;;;;;;;;;;4246473;33;20128;-68
2021/06/19 05:13:41;;;;;;;2.42;1.70;;;;;;;;;;4245312;33;20116;-69
2021/06/19 05:16:06;;;;;;;2.25;1.80;;;;;;;;;;4245967;33;20101;-68
2021/06/19 05:18:32;;;;;;;8.63;1.83;;;;;;;;;;4246606;33;20163;-68
2021/06/19 05:20:58;;;;;;;1.98;1.52;;;;;;;;;;4246656;33;20144;-69
2021/06/19 05:23:24;;;;;;;2.15;1.60;;;;;;;;;;4246375;33;20508;-69
2021/06/19 05:25:50;;;;;;;4.55;1.70;;;;;;;;;;4233367;33;20113;-69
2021/06/19 05:28:17;;;;;;;2.08;1.33;;;;;;;;;;4246326;33;20127;-69
2021/06/19 05:30:42;;;;;;;1.98;1.58;;;;;;;;;;4246679;33;20103;-69
2021/06/19 05:33:08;;;;;;;2.08;1.45;;;;;;;;;;4246396;33;20146;-69
2021/06/19 05:35:34;;;;;;;3.00;1.60;;;;;;;;;;4246402;33;20232;-69
2021/06/19 05:38:00;;;;;;;3.10;1.42;;;;;;;;;;4246371;33;20121;-69
2021/06/19 05:40:26;;;;;;;2.97;1.42;;;;;;;;;;4246256;33;20211;-69
2021/06/19 05:42:52;;;;;;;3.60;1.83;;;;;;;;;;4246192;33;20127;-70
2021/06/19 05:45:18;;;;;;;1.83;1.60;;;;;;;;;;4245949;33;20125;-69
2021/06/19 05:47:44;;;;;;;5.37;1.70;;;;;;;;;;4246131;33;20616;-69
2021/06/19 05:50:10;;;;;;;5.72;2.62;;;;;;;;;;4246134;33;20105;-69
2021/06/19 05:52:36;;;;;;;3.20;1.55;;;;;;;;;;4246322;33;20199;-70
2021/06/19 05:55:03;;;;;;;5.30;1.70;;;;;;;;;;4233255;33;20110;-69
2021/06/19 05:57:29;;;;;;;6.62;1.65;;;;;;;;;;4233185;33;20104;-69
2021/06/19 05:59:55;;;;;;;5.20;2.10;;;;;;;;;;4246104;33;20120;-69
2021/06/19 06:02:21;;;;;;;4.87;2.53;;;;;;;;;;4246216;33;20140;-69
2021/06/19 06:04:47;;;;;;;5.60;2.80;;;;;;;;;;4245944;33;20453;-69
2021/06/19 06:07:12;;;;;;;3.67;2.30;;;;;;;;;;4232853;33;20234;-69
2021/06/19 06:09:38;;;;;;;4.40;2.10;;;;;;;;;;4246186;33;20128;-70
2021/06/19 06:12:06;;;;;;;3.90;2.08;;;;;;;;;;4232880;33;20151;-69
2021/06/19 06:14:32;;;;;;;3.28;2.20;;;;;;;;;;4245994;33;20208;-69
2021/06/19 06:16:58;;;;;;;3.08;1.90;;;;;;;;;;4245989;33;20097;-69
2021/06/19 06:19:23;;;;;;;2.28;1.85;;;;;;;;;;4245364;33;20111;-69
2021/06/19 06:21:49;;;;;;;1.85;1.70;;;;;;;;;;4232430;33;20623;-68
2021/06/19 06:24:16;;;;;;;2.22;1.80;;;;;;;;;;4245803;33;20192;-69
2021/06/19 06:26:42;;;;;;;4.25;1.90;;;;;;;;;;4245911;33;20105;-69
2021/06/19 06:29:08;;;;;;;2.87;2.58;;;;;;;;;;4245745;33;20111;-68
2021/06/19 06:31:34;;;;;;;2.80;1.73;;;;;;;;;;4246019;33;20144;-68
2021/06/19 06:34:00;;;;;;;5.53;2.00;;;;;;;;;;4245596;33;20203;-69
2021/06/19 06:36:26;;;;;;;3.37;1.70;;;;;;;;;;4245763;33;20193;-69
2021/06/19 06:38:52;;;;;;;1.77;1.58;;;;;;;;;;4245758;33;20128;-67
2021/06/19 06:41:17;;;;;;;5.20;2.28;;;;;;;;;;4245658;33;20134;-68
2021/06/19 06:43:43;;;;;;;3.65;1.62;;;;;;;;;;4245740;33;20116;-68
2021/06/19 06:46:09;;;;;;;6.15;1.70;;;;;;;;;;4245705;33;20437;-68
2021/06/19 06:48:35;;;;;;;5.90;1.95;;;;;;;;;;4232613;33;20199;-68
2021/06/19 06:51:01;;;;;;;7.85;2.20;;;;;;;;;;4245807;33;20136;-68
2021/06/19 06:53:27;;;;;;;8.13;1.60;;;;;;;;;;4245280;33;20121;-69
2021/06/19 06:55:53;;;;;;;9.30;1.70;;;;;;;;;;4245584;33;20244;-69
2021/06/19 06:58:19;;;;;;;3.15;1.55;;;;;;;;;;4232471;33;20563;-70
2021/06/19 07:00:45;;;;;;;3.25;1.70;;;;;;;;;;4245521;33;20268;-69
2021/06/19 07:03:10;;;;;;;5.72;1.67;;;;;;;;;;4245350;33;20509;-69
2021/06/19 07:05:36;;;;;;;5.10;2.00;;;;;;;;;;4245292;33;20125;-69
2021/06/19 07:08:02;;;;;;;0.90;0.90;;;;;;;;;;4245260;33;20128;-69
2021/06/19 07:10:28;;;;;;;2.15;1.60;;;;;;;;;;4245427;33;20223;-70
2021/06/19 07:12:54;;;;;;;3.95;1.52;;;;;;;;;;4245464;33;20154;-69
2021/06/19 07:15:20;;;;;;;2.33;1.40;;;;;;;;;;4245451;33;20113;-71
2021/06/19 07:17:46;;;;;;;4.55;1.62;;;;;;;;;;4245539;33;20204;-69
2021/06/19 07:20:12;;;;;;;5.78;1.40;;;;;;;;;;4232171;33;20166;-70
2021/06/19 07:22:39;;;;;;;7.15;2.22;;;;;;;;;;4245437;33;20626;-69
2021/06/19 07:25:05;;;;;;;3.80;1.40;;;;;;;;;;4244945;33;20125;-69
2021/06/19 07:27:31;;;;;;;5.20;1.80;;;;;;;;;;4245225;33;20114;-69
2021/06/19 07:29:57;;;;;;;2.67;1.70;;;;;;;;;;4244939;33;20211;-69
2021/06/19 07:32:23;;;;;;;3.75;1.65;;;;;;;;;;4246808;33;20124;-69
2021/06/19 07:34:49;;;;;;;3.67;1.50;;;;;;;;;;4234329;33;20121;-69
2021/06/19 07:37:15;;;;;;;4.07;1.73;;;;;;;;;;4247417;33;20120;-70
2021/06/19 07:39:41;;;;;;;2.80;1.80;;;;;;;;;;4247211;33;20195;-69
2021/06/19 07:42:07;;;;;;;10.23;2.22;;;;;;;;;;4247555;33;20109;-69
2021/06/19 07:44:33;;;;;;;4.68;1.70;;;;;;;;;;4247149;33;20193;-69
2021/06/19 07:46:59;;;;;;;1.12;1.12;;;;;;;;;;4247502;33;20129;-69
2021/06/19 07:49:26;;;;;;;3.10;1.75;;;;;;;;;;4234246;33;20204;-69
2021/06/19 07:51:52;;;;;;;1.83;1.65;;;;;;;;;;4242058;33;20090;-69
2021/06/19 07:54:18;;;;;;;1.25;1.25;;;;;;;;;;4233144;33;20125;-70
2021/06/19 07:56:46;;;;;;;1.55;1.45;;;;;;;;;;4233241;33;20128;-69
2021/06/19 07:59:13;;;;;;;2.90;1.60;;;;;;;;;;4233091;33;20117;-69
2021/06/19 08:01:38;;;;;;;4.55;1.40;;;;;;;;;;4220373;33;20215;-69
2021/06/19 08:04:04;;;;;;;2.28;1.60;;;;;;;;;;4233040;33;20129;-69
2021/06/19 08:06:30;;;;;;;7.40;1.58;;;;;;;;;;4233018;33;20222;-70
2021/06/19 08:08:56;;;;;;;2.58;2.10;;;;;;;;;;4232942;33;20434;-69
2021/06/19 08:11:22;;;;;;;0.70;0.70;;;;;;;;;;4232927;33;20473;-70
2021/06/19 08:13:53;;;;;;;7.95;1.37;;;;;;;;;;4232891;33;20139;-70
2021/06/19 08:16:20;;;;;;;4.60;1.70;;;;;;;;;;4232877;33;20103;-69
2021/06/19 08:18:46;;;;;;;4.72;1.52;;;;;;;;;;4232823;33;20125;-70
2021/06/19 08:21:15;;;;;;;4.10;1.70;;;;;;;;;;4233071;33;20125;-69
2021/06/19 08:23:41;;;;;;;2.65;1.65;;;;;;;;;;4233073;33;20113;-70
2021/06/19 08:26:07;;;;;;;4.32;1.55;;;;;;;;;;4232770;33;20136;-70
2021/06/19 08:28:34;;;;;;;4.03;1.73;;;;;;;;;;4232736;33;20113;-70
2021/06/19 08:31:03;;;;;;;6.35;1.62;;;;;;;;;;4232793;33;20106;-69
2021/06/19 08:33:30;;;;;;;4.70;1.80;;;;;;;;;;4232773;33;20133;-70
2021/06/19 08:35:56;;;;;;;3.78;1.55;;;;;;;;;;4233028;33;20116;-69
2021/06/19 08:38:22;;;;;;;5.82;1.92;;;;;;;;;;4232598;33;20519;-69
2021/06/19 08:40:48;;;;;;;3.50;1.80;;;;;;;;;;4232786;33;20573;-69
2021/06/19 08:43:13;;;;;;;6.12;1.80;;;;;;;;;;4232046;33;20445;-69
2021/06/19 08:45:39;;;;;;;2.42;1.50;;;;;;;;;;4232888;33;20574;-70
2021/06/19 08:48:06;;;;;;;11.45;2.28;;;;;;;;;;4233606;33;20509;-69
2021/06/19 08:50:32;;;;;;;5.78;2.97;;;;;;;;;;4246971;33;20655;-70
2021/06/19 08:52:59;;;;;;;3.22;1.73;;;;;;;;;;4246669;33;20133;-69
2021/06/19 08:55:25;;;;;;;1.55;1.27;;;;;;;;;;4246984;33;20460;-69
2021/06/19 08:57:51;;;;;;;2.03;1.40;;;;;;;;;;4233520;33;20127;-70
2021/06/19 09:00:17;;;;;;;4.97;1.40;;;;;;;;;;4233539;33;20547;-70
2021/06/19 09:02:43;;;;;;;3.62;1.90;;;;;;;;;;4246731;33;20119;-69
2021/06/19 09:05:10;;;;;;;1.62;1.52;;;;;;;;;;4246780;33;20200;-70
2021/06/19 09:07:41;;;;;;;1.23;1.12;;;;;;;;;;4246618;33;20601;-70
2021/06/19 09:10:29;;;;;;;1.40;1.30;;;;;;;;;;4246673;33;20458;-70
2021/06/19 09:13:08;;;;;;;4.32;2.05;;;;;;;;;;4246445;33;20112;-70
2021/06/19 09:15:47;;;;;;;4.12;1.60;;;;;;;;;;4246622;33;20118;-70
2021/06/19 09:18:23;;;;;;;1.90;1.70;;;;;;;;;;4246393;33;20119;-70
2021/06/19 09:20:56;;;;;;;1.80;1.60;;;;;;;;;;4246583;33;20112;-70
2021/06/19 09:23:33;;;;;;;2.33;1.77;;;;;;;;;;4246402;33;20199;-70
2021/06/19 09:26:15;;;;;;;3.45;1.45;;;;;;;;;;4246482;33;20104;-69
2021/06/19 09:29:06;;;;;;;3.30;1.40;;;;;;;;;;4246372;33;20207;-69
2021/06/19 09:31:36;;;;;;;3.33;1.50;;;;;;;;;;4246714;33;20129;-70
2021/06/19 09:34:16;;;;;;;2.08;1.67;;;;;;;;;;4246207;33;20124;-70
2021/06/19 09:36:51;;;;;;;4.00;1.50;;;;;;;;;;4246451;33;20130;-70
2021/06/19 09:39:22;;;;;;;1.50;1.40;;;;;;;;;;4233264;33;20131;-71
2021/06/19 09:41:55;;;;;;;3.45;1.50;;;;;;;;;;4233526;33;20198;-71
2021/06/19 09:44:43;;;;;;;1.62;1.52;;;;;;;;;;4246185;33;20120;-70
2021/06/19 09:47:13;;;;;;;1.58;1.45;;;;;;;;;;4246361;33;20215;-70
2021/06/19 09:49:41;;;;;;;8.63;1.60;;;;;;;;;;4246144;33;20210;-70
2021/06/19 09:52:10;;;;;;;5.78;1.90;;;;;;;;;;4246392;33;20441;-70
2021/06/19 09:54:40;;;;;;;1.80;1.20;;;;;;;;;;4233147;33;20132;-70
2021/06/19 09:57:09;;;;;;;3.12;1.87;;;;;;;;;;4246145;33;20512;-70
2021/06/19 09:59:36;;;;;;;1.58;1.48;;;;;;;;;;4246263;33;20519;-70
2021/06/19 10:02:03;;;;;;;2.62;1.60;;;;;;;;;;4246191;33;20105;-70
2021/06/19 10:04:30;;;;;;;1.52;1.40;;;;;;;;;;4246258;33;20212;-70
2021/06/19 10:06:56;;;;;;;4.85;1.85;;;;;;;;;;4246011;33;20120;-69
2021/06/19 10:09:22;;;;;;;4.37;1.50;;;;;;;;;;4233022;33;20424;-70
2021/06/19 10:11:52;;;;;;;5.15;1.60;;;;;;;;;;4245879;33;20505;-70
2021/06/19 10:14:19;;;;;;;4.28;1.80;;;;;;;;;;4245972;33;20105;-70
2021/06/19 10:16:47;;;;;;;5.03;1.62;;;;;;;;;;4246035;33;20529;-70
2021/06/19 10:19:13;;;;;;;4.62;2.00;;;;;;;;;;4233066;33;20131;-70
2021/06/19 10:21:39;;;;;;;2.83;1.60;;;;;;;;;;4245867;33;20622;-70
2021/06/19 10:24:06;;;;;;;3.62;1.60;;;;;;;;;;4245806;33;20511;-70
2021/06/19 10:26:32;;;;;;;1.70;1.60;;;;;;;;;;4246076;33;20210;-70
2021/06/19 10:28:59;;;;;;;2.35;1.60;;;;;;;;;;4220945;33;20116;-70
2021/06/19 10:31:25;;;;;;;2.15;1.33;;;;;;;;;;4221310;33;20096;-70
2021/06/19 10:33:51;;;;;;;2.28;1.50;;;;;;;;;;4232607;33;20094;-71
2021/06/19 10:36:17;;;;;;;3.97;1.65;;;;;;;;;;4245940;33;20097;-70
2021/06/19 10:38:53;;;;;;;3.85;1.50;;;;;;;;;;4245587;33;20116;-70
2021/06/19 10:41:21;;;;;;;2.28;1.75;;;;;;;;;;4246001;33;20126;-71
2021/06/19 10:43:48;;;;;;;6.40;2.55;;;;;;;;;;4245378;33;20140;-71
2021/06/19 10:46:28;;;;;;;1.62;1.52;;;;;;;;;;4245821;33;20487;-70
2021/06/19 10:48:55;;;;;;;14.13;2.85;;;;;;;;;;4245689;33;20440;-70
2021/06/19 10:51:25;;;;;;;4.10;1.73;;;;;;;;;;4232484;33;20125;-70
2021/06/19 10:54:11;;;;;;;4.90;1.70;;;;;;;;;;4245456;33;20120;-69
2021/06/19 10:56:46;;;;;;;1.20;1.17;;;;;;;;;;4245642;33;20453;-70
2021/06/19 10:59:17;;;;;;;3.60;2.65;;;;;;;;;;4245432;33;20144;-70
2021/06/19 11:01:43;;;;;;;3.67;1.48;;;;;;;;;;4245533;33;20195;-70
2021/06/19 11:04:47;;;;;;;3.80;2.37;;;;;;;;;;4245361;33;20135;-70
2021/06/19 11:07:19;;;;;;;2.10;1.70;;;;;;;;;;4188592;34;20199;-70
2021/06/19 11:09:48;;;;;;;3.05;1.83;;;;;;;;;;4189440;34;20102;-70
2021/06/19 11:12:22;;;;;;;1.33;1.23;;;;;;;;;;4219853;33;20132;-70
2021/06/19 11:14:50;;;;;;;2.47;1.80;;;;;;;;;;4247896;33;20113;-70
2021/06/19 11:17:22;;;;;;;0.85;0.85;;;;;;;;;;4247711;33;20097;-70
2021/06/19 11:20:05;;;;;;;2.22;1.30;;;;;;;;;;4247550;33;20128;-70
2021/06/19 11:22:37;;;;;;;1.50;1.40;;;;;;;;;;4247749;33;20124;-70
2021/06/19 11:25:20;;;;;;;7.37;1.70;;;;;;;;;;4247453;33;20109;-71
2021/06/19 11:27:55;;;;;;;1.73;1.62;;;;;;;;;;4247537;33;20183;-70
2021/06/19 11:30:33;;;;;;;3.10;1.37;;;;;;;;;;4234665;33;20101;-70
2021/06/19 11:33:26;;;;;;;2.35;1.50;;;;;;;;;;4247321;33;20206;-70
2021/06/19 11:36:04;;;;;;;1.75;1.45;;;;;;;;;;4247488;33;20129;-71
2021/06/19 11:38:42;;;;;;;1.83;1.67;;;;;;;;;;4247235;33;20100;-70
2021/06/19 11:41:12;;;;;;;1.65;1.50;;;;;;;;;;4247655;33;20119;-71
2021/06/19 11:43:38;;;;;;;1.90;1.42;;;;;;;;;;4247104;33;20222;-70
2021/06/19 11:46:04;;;;;;;7.10;1.52;;;;;;;;;;4247196;33;20569;-71
2021/06/19 11:48:30;;;;;;;1.80;1.50;;;;;;;;;;4247228;33;20108;-71
2021/06/19 11:51:05;;;;;;;2.22;1.60;;;;;;;;;;4247434;33;20132;-70
2021/06/19 11:53:33;;;;;;;3.08;1.70;;;;;;;;;;4247197;33;20113;-71
2021/06/19 11:56:12;;;;;;;2.10;1.48;;;;;;;;;;4247166;33;20112;-70
2021/06/19 11:58:42;;;;;;;2.45;1.70;;;;;;;;;;4234319;33;20109;-71
2021/06/19 12:01:08;;;;;;;4.00;1.80;;;;;;;;;;4247233;33;20467;-71
2021/06/19 12:03:34;;;;;;;4.18;1.90;;;;;;;;;;4233808;33;20119;-70
2021/06/19 12:06:00;;;;;;;2.33;1.37;;;;;;;;;;4234162;33;20124;-71
2021/06/19 12:08:26;;;;;;;3.17;1.50;;;;;;;;;;4247005;33;20112;-70
2021/06/19 12:10:52;;;;;;;2.75;1.77;;;;;;;;;;4247097;33;20116;-70
2021/06/19 12:13:37;;;;;;;2.22;1.60;;;;;;;;;;4247274;33;20196;-71
2021/06/19 12:16:05;;;;;;;1.60;1.50;;;;;;;;;;4235953;33;20515;-71
2021/06/19 12:18:31;;;;;;;0.82;0.82;;;;;;;;;;4246071;33;20607;-71
2021/06/19 12:20:58;;;;;;;5.28;2.00;;;;;;;;;;4246931;33;20220;-71
2021/06/19 12:23:24;;;;;;;1.55;1.45;;;;;;;;;;4246840;33;20097;-71
2021/06/19 12:25:50;;;;;;;4.40;1.75;;;;;;;;;;4233828;33;20108;-70
2021/06/19 12:28:23;;;;;;;3.83;1.40;;;;;;;;;;4247063;33;20112;-71
2021/06/19 12:30:56;;;;;;;2.37;1.87;;;;;;;;;;4246968;33;20093;-71
2021/06/19 12:33:23;;;;;;;1.77;1.62;;;;;;;;;;4246808;33;20196;-70
2021/06/19 12:35:49;;;;;;;3.37;1.90;;;;;;;;;;4246880;33;20429;-70
2021/06/19 12:38:17;;;;;;;2.20;2.00;;;;;;;;;;4233636;33;20123;-70
2021/06/19 12:40:44;;;;;;;1.33;1.23;;;;;;;;;;4233996;33;20097;-70
2021/06/19 12:43:10;;;;;;;2.97;1.80;;;;;;;;;;4233842;33;20188;-71
2021/06/19 12:45:49;;;;;;;1.62;1.52;;;;;;;;;;4246341;33;20207;-71
2021/06/19 12:48:37;;;;;;;2.05;1.73;;;;;;;;;;4246601;33;20109;-71
2021/06/19 12:51:04;;;;;;;7.00;2.17;;;;;;;;;;4246733;33;20199;-70
2021/06/19 12:53:31;;;;;;;1.65;1.55;;;;;;;;;;4246678;33;20109;-70
2021/06/19 12:56:00;;;;;;;1.12;1.12;;;;;;;;;;4246776;33;20124;-70
2021/06/19 12:58:39;;;;;;;1.80;1.70;;;;;;;;;;4246431;33;20092;-70
2021/06/19 13:01:19;;;;;;;2.30;1.52;;;;;;;;;;4246950;33;20112;-70
2021/06/19 13:03:58;;;;;;;2.22;1.67;;;;;;;;;;4246556;33;20120;-70
2021/06/19 13:06:43;;;;;;;1.90;1.60;;;;;;;;;;4246570;33;20101;-70
2021/06/19 13:09:10;;;;;;;4.72;1.77;;;;;;;;;;4246726;33;20518;-71
2021/06/19 13:11:38;;;;;;;1.90;1.60;;;;;;;;;;4246716;33;20089;-71
2021/06/19 13:14:09;;;;;;;0.95;0.95;;;;;;;;;;4233439;33;20129;-70
2021/06/19 13:16:36;;;;;;;4.53;2.28;;;;;;;;;;4233566;33;20108;-70
2021/06/19 13:19:09;;;;;;;2.03;1.45;;;;;;;;;;4246698;33;20136;-71
2021/06/19 13:21:37;;;;;;;2.97;1.83;;;;;;;;;;4246574;33;20095;-71
2021/06/19 13:24:23;;;;;;;2.78;1.60;;;;;;;;;;4233399;33;20116;-71
2021/06/19 13:26:49;;;;;;;2.37;2.17;;;;;;;;;;4246506;33;20520;-70
2021/06/19 13:29:15;;;;;;;1.58;1.48;;;;;;;;;;4246152;33;20147;-70
2021/06/19 13:31:43;;;;;;;3.37;1.98;;;;;;;;;;4233379;33;20517;-70
2021/06/19 13:34:22;;;;;;;3.05;1.80;;;;;;;;;;4246420;33;20200;-71
2021/06/19 13:36:48;;;;;;;3.42;1.80;;;;;;;;;;4246451;33;20124;-71
2021/06/19 13:39:14;;;;;;;9.45;2.08;;;;;;;;;;4233354;33;20104;-71
2021/06/19 13:41:44;;;;;;;2.10;1.70;;;;;;;;;;4246349;33;20097;-70
2021/06/19 13:44:15;;;;;;;1.58;1.48;;;;;;;;;;4245942;33;20097;-71
2021/06/19 13:46:41;;;;;;;7.87;1.92;;;;;;;;;;4246180;33;20196;-70
2021/06/19 13:49:07;;;;;;;3.58;1.90;;;;;;;;;;4245945;33;20545;-70
2021/06/19 13:51:33;;;;;;;4.30;1.60;;;;;;;;;;4233141;33;20129;-70
2021/06/19 13:53:59;;;;;;;7.70;1.70;;;;;;;;;;4246076;33;20089;-70
2021/06/19 13:56:25;;;;;;;4.43;1.95;;;;;;;;;;4246297;33;20127;-70
2021/06/19 13:58:51;;;;;;;4.75;2.35;;;;;;;;;;4246055;33;20089;-70
2021/06/19 14:01:17;;;;;;;5.32;1.80;;;;;;;;;;4246207;33;20133;-70
2021/06/19 14:03:44;;;;;;;2.83;1.90;;;;;;;;;;4246033;33;20540;-70
2021/06/19 14:06:13;;;;;;;9.85;1.90;;;;;;;;;;4232991;33;20177;-71
2021/06/19 14:08:47;;;;;;;4.22;1.70;;;;;;;;;;4232948;33;20453;-71
2021/06/19 14:11:18;;;;;;;2.35;1.70;;;;;;;;;;4246008;33;20116;-71
2021/06/19 14:13:44;;;;;;;4.43;2.17;;;;;;;;;;4245825;33;20110;-71
2021/06/19 14:16:11;;;;;;;2.62;1.95;;;;;;;;;;4232892;33;20132;-71
2021/06/19 14:18:37;;;;;;;2.33;1.80;;;;;;;;;;4245593;33;20456;-71
2021/06/19 14:21:04;;;;;;;1.83;1.73;;;;;;;;;;4245832;33;20551;-70
2021/06/19 14:23:31;;;;;;;2.58;1.60;;;;;;;;;;4245759;33;20131;-71
2021/06/19 14:25:57;;;;;;;4.70;2.12;;;;;;;;;;4245706;33;20265;-71
2021/06/19 14:28:23;;;;;;;3.58;1.80;;;;;;;;;;4245745;33;20165;-71
2021/06/19 14:30:49;;;;;;;1.73;1.50;;;;;;;;;;4245878;33;20187;-70
2021/06/19 14:33:16;;;;;;;1.98;1.70;;;;;;;;;;4245716;33;20204;-71
2021/06/19 14:35:42;;;;;;;3.62;2.00;;;;;;;;;;4232746;33;20100;-71
2021/06/19 14:38:09;;;;;;;2.45;1.90;;;;;;;;;;4245723;33;20104;-70
2021/06/19 14:40:36;;;;;;;2.78;1.85;;;;;;;;;;4245910;33;20116;-70
2021/06/19 14:43:02;;;;;;;2.17;1.98;;;;;;;;;;4247603;33;20537;-70
2021/06/19 14:45:28;;;;;;;2.12;1.90;;;;;;;;;;4247888;33;20101;-70
2021/06/19 14:47:54;;;;;;;4.65;1.67;;;;;;;;;;4234549;33;20297;-70
2021/06/19 14:50:20;;;;;;;3.40;1.70;;;;;;;;;;4247878;33;20197;-70
2021/06/19 14:52:46;;;;;;;2.10;1.80;;;;;;;;;;4247773;33;20215;-70
2021/06/19 14:55:12;;;;;;;2.95;1.70;;;;;;;;;;4247775;33;20140;-70
2021/06/19 14:57:38;;;;;;;3.35;2.22;;;;;;;;;;4247913;33;20211;-70
2021/06/19 15:00:05;;;;;;;2.65;1.65;;;;;;;;;;4247795;33;20129;-70
2021/06/19 15:02:34;;;;;;;1.70;1.60;;;;;;;;;;4247801;33;20111;-71
2021/06/19 15:05:01;;;;;;;4.20;1.83;;;;;;;;;;4247704;33;20128;-71
2021/06/19 15:07:27;;;;;;;2.30;1.52;;;;;;;;;;4247942;33;20139;-71
2021/06/19 15:09:53;;;;;;;2.53;2.00;;;;;;;;;;4247650;33;20115;-70
2021/06/19 15:12:19;;;;;;;2.12;1.87;;;;;;;;;;4247879;33;20112;-71
2021/06/19 15:14:45;;;;;;;2.10;1.90;;;;;;;;;;4247733;33;20449;-70